sensor_id;sensor_type;location;lat;lon;timestamp;pressure;altitude;pressure_sealevel;temperature;humidity
17450;BME280;8842;51.244;7.102;2023-02-28T00:04:38;100715.73;;;1.05;97.30
17450;BME280;8842;51.244;7.102;2023-02-28T00:14:54;100713.88;;;0.87;100.00
17450;BME280;8842;51.244;7.102;2023-02-28T00:19:58;100714.78;;;0.86;100.00
17450;BME280;8842;51.244;7.102;2023-02-28T00:30:19;100714.39;;;1.07;98.10
17450;BME280;8842;51.244;7.102;2023-02-28T00:35:23;100718.86;;;1.00;97.37
17450;BME280;8842;51.244;7.102;2023-02-28T00:45:39;100711.16;;;0.93;99.13
17450;BME280;8842;51.244;7.102;2023-02-28T00:50:43;100709.78;;;0.72;100.00
17450;BME280;8842;51.244;7.102;2023-02-28T00:55:47;100706.52;;;0.83;100.00
17450;BME280;8842;51.244;7.102;2023-02-28T01:06:04;100697.17;;;0.70;100.00
17450;BME280;8842;51.244;7.102;2023-02-28T01:16:22;100695.16;;;0.62;100.00
17450;BME280;8842;51.244;7.102;2023-02-28T01:21:26;100707.93;;;0.77;100.00
17450;BME280;8842;51.244;7.102;2023-02-28T01:26:31;100709.84;;;0.69;100.00
17450;BME280;8842;51.244;7.102;2023-02-28T01:36:49;100706.12;;;0.57;100.00
17450;BME280;8842;51.244;7.102;2023-02-28T01:41:53;100708.98;;;0.67;100.00
17450;BME280;8842;51.244;7.102;2023-02-28T01:46:57;100704.45;;;0.53;100.00
17450;BME280;8842;51.244;7.102;2023-02-28T01:52:01;100704.20;;;0.68;100.00
17450;BME280;8842;51.244;7.102;2023-02-28T02:02:21;100683.55;;;0.53;100.00
17450;BME280;8842;51.244;7.102;2023-02-28T02:12:56;100681.02;;;0.22;100.00
17450;BME280;8842;51.244;7.102;2023-02-28T02:45:08;100654.48;;;-0.38;100.00
17450;BME280;8842;51.244;7.102;2023-02-28T02:50:17;100652.48;;;-0.49;100.00
17450;BME280;8842;51.244;7.102;2023-02-28T02:55:22;100652.61;;;-0.27;100.00
17450;BME280;8842;51.244;7.102;2023-02-28T03:05:45;100662.64;;;-0.31;100.00
17450;BME280;8842;51.244;7.102;2023-02-28T03:10:51;100667.44;;;-0.31;100.00
17450;BME280;8842;51.244;7.102;2023-02-28T03:21:18;100672.29;;;-0.35;100.00
17450;BME280;8842;51.244;7.102;2023-02-28T03:26:25;100664.02;;;-0.36;100.00
17450;BME280;8842;51.244;7.102;2023-02-28T03:31:33;100668.47;;;-0.42;100.00
17450;BME280;8842;51.244;7.102;2023-02-28T03:41:54;100658.48;;;-0.44;100.00
17450;BME280;8842;51.244;7.102;2023-02-28T03:47:01;100658.48;;;-0.44;100.00
17450;BME280;8842;51.244;7.102;2023-02-28T03:52:08;100666.73;;;-0.42;100.00
17450;BME280;8842;51.244;7.102;2023-02-28T04:02:26;100660.66;;;-0.44;100.00
17450;BME280;8842;51.244;7.102;2023-02-28T04:07:32;100668.38;;;-0.35;100.00
17450;BME280;8842;51.244;7.102;2023-02-28T04:12:36;100668.38;;;-0.35;100.00
17450;BME280;8842;51.244;7.102;2023-02-28T04:17:40;100668.38;;;-0.35;100.00
17450;BME280;8842;51.244;7.102;2023-02-28T04:22:44;100671.47;;;-0.40;100.00
17450;BME280;8842;51.244;7.102;2023-02-28T04:27:48;100686.72;;;-0.41;100.00
17450;BME280;8842;51.244;7.102;2023-02-28T04:32:52;100686.72;;;-0.41;100.00
17450;BME280;8842;51.244;7.102;2023-02-28T04:37:56;100672.95;;;-0.53;100.00
17450;BME280;8842;51.244;7.102;2023-02-28T04:43:00;100675.29;;;-0.32;100.00
17450;BME280;8842;51.244;7.102;2023-02-28T04:48:04;100685.92;;;-0.47;100.00
17450;BME280;8842;51.244;7.102;2023-02-28T04:53:09;100679.59;;;-0.62;100.00
17450;BME280;8842;51.244;7.102;2023-02-28T04:58:13;100679.59;;;-0.62;100.00
17450;BME280;8842;51.244;7.102;2023-02-28T05:03:18;100687.67;;;-0.46;100.00
17450;BME280;8842;51.244;7.102;2023-02-28T05:08:22;100694.20;;;-0.46;100.00
17450;BME280;8842;51.244;7.102;2023-02-28T05:13:26;100683.34;;;-0.49;100.00
17450;BME280;8842;51.244;7.102;2023-02-28T05:23:41;100690.97;;;-0.68;100.00
17450;BME280;8842;51.244;7.102;2023-02-28T05:28:46;100696.62;;;-0.68;100.00
17450;BME280;8842;51.244;7.102;2023-02-28T05:33:50;100691.91;;;-0.72;100.00
17450;BME280;8842;51.244;7.102;2023-02-28T05:38:54;100724.01;;;-0.68;100.00
17450;BME280;8842;51.244;7.102;2023-02-28T05:43:59;100692.95;;;-0.86;100.00
17450;BME280;8842;51.244;7.102;2023-02-28T05:49:04;100709.83;;;-0.80;100.00
17450;BME280;8842;51.244;7.102;2023-02-28T05:54:08;100709.83;;;-0.80;100.00
17450;BME280;8842;51.244;7.102;2023-02-28T05:59:12;100708.20;;;-0.92;100.00
17450;BME280;8842;51.244;7.102;2023-02-28T06:09:29;100714.50;;;-0.72;100.00
17450;BME280;8842;51.244;7.102;2023-02-28T06:14:34;100723.77;;;-0.84;100.00
17450;BME280;8842;51.244;7.102;2023-02-28T06:19:38;100718.12;;;-0.84;99.42
17450;BME280;8842;51.244;7.102;2023-02-28T06:24:44;100722.91;;;-0.83;99.12
17450;BME280;8842;51.244;7.102;2023-02-28T06:29:48;100723.00;;;-0.92;99.51
17450;BME280;8842;51.244;7.102;2023-02-28T06:34:52;100728.70;;;-0.99;98.93
17450;BME280;8842;51.244;7.102;2023-02-28T06:39:56;100739.48;;;-0.92;97.02
17450;BME280;8842;51.244;7.102;2023-02-28T06:45:01;100744.71;;;-0.93;95.34
17450;BME280;8842;51.244;7.102;2023-02-28T06:50:10;100746.33;;;-0.79;94.48
17450;BME280;8842;51.244;7.102;2023-02-28T06:55:15;100759.25;;;-0.71;94.83
17450;BME280;8842;51.244;7.102;2023-02-28T07:00:22;100759.16;;;-0.62;96.25
17450;BME280;8842;51.244;7.102;2023-02-28T07:10:40;100758.86;;;-0.04;98.48
17450;BME280;8842;51.244;7.102;2023-02-28T07:15:52;100758.86;;;-0.04;98.48
17450;BME280;8842;51.244;7.102;2023-02-28T07:26:04;100769.83;;;0.22;90.51
17450;BME280;8842;51.244;7.102;2023-02-28T07:31:09;100770.20;;;0.26;89.53
17450;BME280;8842;51.244;7.102;2023-02-28T07:41:26;100787.58;;;0.57;88.97
17450;BME280;8842;51.244;7.102;2023-02-28T07:46:31;100778.48;;;0.80;87.93
17450;BME280;8842;51.244;7.102;2023-02-28T07:51:37;100770.81;;;0.71;82.33
17450;BME280;8842;51.244;7.102;2023-02-28T07:56:41;100776.66;;;0.85;79.93
17450;BME280;8842;51.244;7.102;2023-02-28T08:01:45;100775.66;;;0.92;80.62
17450;BME280;8842;51.244;7.102;2023-02-28T08:06:49;100784.31;;;1.21;74.70
17450;BME280;8842;51.244;7.102;2023-02-28T08:11:55;100778.19;;;1.67;75.15
17450;BME280;8842;51.244;7.102;2023-02-28T08:16:59;100782.47;;;1.92;70.87
17450;BME280;8842;51.244;7.102;2023-02-28T08:22:03;100783.55;;;2.02;69.82
17450;BME280;8842;51.244;7.102;2023-02-28T08:27:06;100780.53;;;2.01;66.81
17450;BME280;8842;51.244;7.102;2023-02-28T08:32:10;100779.57;;;2.25;66.75
17450;BME280;8842;51.244;7.102;2023-02-28T08:42:29;100783.69;;;2.73;64.08
17450;BME280;8842;51.244;7.102;2023-02-28T08:47:33;100781.02;;;2.57;60.71
17450;BME280;8842;51.244;7.102;2023-02-28T08:52:37;100776.67;;;3.08;59.83
17450;BME280;8842;51.244;7.102;2023-02-28T09:02:53;100783.30;;;4.42;56.02
17450;BME280;8842;51.244;7.102;2023-02-28T09:07:58;100787.16;;;4.45;53.22
17450;BME280;8842;51.244;7.102;2023-02-28T09:18:13;100771.59;;;3.81;55.66
17450;BME280;8842;51.244;7.102;2023-02-28T09:23:17;100764.48;;;4.28;53.81
17450;BME280;8842;51.244;7.102;2023-02-28T09:28:21;100771.33;;;4.61;52.40
17450;BME280;8842;51.244;7.102;2023-02-28T09:33:26;100754.23;;;4.47;55.85
17450;BME280;8842;51.244;7.102;2023-02-28T09:38:30;100758.00;;;3.51;57.50
17450;BME280;8842;51.244;7.102;2023-02-28T09:48:51;100757.34;;;2.95;54.51
17450;BME280;8842;51.244;7.102;2023-02-28T09:53:56;100757.12;;;2.86;56.26
17450;BME280;8842;51.244;7.102;2023-02-28T10:04:23;100761.71;;;2.94;55.05
17450;BME280;8842;51.244;7.102;2023-02-28T10:09:27;100768.53;;;2.84;54.30
17450;BME280;8842;51.244;7.102;2023-02-28T10:19:50;100761.55;;;3.00;56.87
17450;BME280;8842;51.244;7.102;2023-02-28T10:24:55;100769.67;;;3.25;54.66
17450;BME280;8842;51.244;7.102;2023-02-28T10:30:05;100774.34;;;3.62;52.30
17450;BME280;8842;51.244;7.102;2023-02-28T10:35:14;100760.73;;;3.62;56.05
17450;BME280;8842;51.244;7.102;2023-02-28T10:40:32;100755.64;;;4.16;54.80
17450;BME280;8842;51.244;7.102;2023-02-28T10:45:36;100763.63;;;4.41;49.88
17450;BME280;8842;51.244;7.102;2023-02-28T10:50:43;100748.28;;;4.55;51.33
17450;BME280;8842;51.244;7.102;2023-02-28T10:55:58;100744.92;;;4.50;52.09
17450;BME280;8842;51.244;7.102;2023-02-28T11:06:18;100736.52;;;4.26;53.24
17450;BME280;8842;51.244;7.102;2023-02-28T11:16:38;100735.89;;;4.03;57.41
17450;BME280;8842;51.244;7.102;2023-02-28T11:26:56;100732.14;;;3.97;50.87
17450;BME280;8842;51.244;7.102;2023-02-28T11:32:11;100736.25;;;4.05;53.20
17450;BME280;8842;51.244;7.102;2023-02-28T11:37:18;100723.77;;;4.67;52.68
17450;BME280;8842;51.244;7.102;2023-02-28T11:47:58;100713.32;;;4.90;54.46
17450;BME280;8842;51.244;7.102;2023-02-28T11:53:05;100720.61;;;4.69;50.94
17450;BME280;8842;51.244;7.102;2023-02-28T12:03:58;100715.94;;;4.38;52.35
17450;BME280;8842;51.244;7.102;2023-02-28T12:19:58;100708.94;;;6.21;51.16
17450;BME280;8842;51.244;7.102;2023-02-28T12:30:46;100676.38;;;5.88;51.35
17450;BME280;8842;51.244;7.102;2023-02-28T12:46:18;100666.36;;;6.30;48.15
17450;BME280;8842;51.244;7.102;2023-02-28T12:51:24;100655.98;;;5.80;48.22
17450;BME280;8842;51.244;7.102;2023-02-28T12:56:38;100640.44;;;5.51;49.21
17450;BME280;8842;51.244;7.102;2023-02-28T13:02:01;100640.98;;;5.59;51.96
17450;BME280;8842;51.244;7.102;2023-02-28T13:12:51;100633.05;;;5.02;54.92
17450;BME280;8842;51.244;7.102;2023-02-28T13:17:57;100619.67;;;5.19;56.01
17450;BME280;8842;51.244;7.102;2023-02-28T13:23:02;100619.17;;;5.33;54.65
17450;BME280;8842;51.244;7.102;2023-02-28T13:28:11;100628.28;;;5.24;54.22
17450;BME280;8842;51.244;7.102;2023-02-28T13:38:38;100612.59;;;5.21;54.14
17450;BME280;8842;51.244;7.102;2023-02-28T13:44:05;100607.55;;;5.15;55.15
17450;BME280;8842;51.244;7.102;2023-02-28T13:54:43;100600.75;;;5.77;52.91
17450;BME280;8842;51.244;7.102;2023-02-28T14:05:11;100593.56;;;5.82;49.46
17450;BME280;8842;51.244;7.102;2023-02-28T14:10:25;100588.23;;;5.72;49.29
17450;BME280;8842;51.244;7.102;2023-02-28T14:15:50;100588.73;;;5.70;50.57
17450;BME280;8842;51.244;7.102;2023-02-28T14:26:16;100573.72;;;5.39;49.17
17450;BME280;8842;51.244;7.102;2023-02-28T14:31:24;100575.41;;;5.52;51.63
17450;BME280;8842;51.244;7.102;2023-02-28T14:41:46;100585.05;;;5.18;53.10
17450;BME280;8842;51.244;7.102;2023-02-28T14:46:52;100584.83;;;5.13;53.68
17450;BME280;8842;51.244;7.102;2023-02-28T14:52:07;100570.39;;;5.34;53.93
17450;BME280;8842;51.244;7.102;2023-02-28T15:02:35;100575.41;;;5.63;53.99
17450;BME280;8842;51.244;7.102;2023-02-28T15:07:40;100568.66;;;5.45;53.55
17450;BME280;8842;51.244;7.102;2023-02-28T15:12:49;100569.53;;;5.11;54.45
17450;BME280;8842;51.244;7.102;2023-02-28T15:17:56;100560.48;;;5.18;55.38
17450;BME280;8842;51.244;7.102;2023-02-28T15:23:02;100571.55;;;5.16;55.73
17450;BME280;8842;51.244;7.102;2023-02-28T15:28:13;100566.79;;;5.02;55.74
17450;BME280;8842;51.244;7.102;2023-02-28T15:33:23;100559.78;;;4.90;55.21
17450;BME280;8842;51.244;7.102;2023-02-28T15:43:40;100554.08;;;4.90;56.80
17450;BME280;8842;51.244;7.102;2023-02-28T15:48:48;100568.20;;;4.76;56.40
17450;BME280;8842;51.244;7.102;2023-02-28T15:59:08;100557.03;;;4.81;59.29
17450;BME280;8842;51.244;7.102;2023-02-28T16:04:16;100566.73;;;4.68;61.69
17450;BME280;8842;51.244;7.102;2023-02-28T16:09:21;100566.61;;;4.59;61.29
17450;BME280;8842;51.244;7.102;2023-02-28T16:19:38;100577.08;;;4.61;64.03
17450;BME280;8842;51.244;7.102;2023-02-28T16:24:42;100575.47;;;4.44;63.33
17450;BME280;8842;51.244;7.102;2023-02-28T16:29:52;100584.05;;;4.37;63.30
17450;BME280;8842;51.244;7.102;2023-02-28T16:35:00;100585.52;;;4.33;63.86
17450;BME280;8842;51.244;7.102;2023-02-28T16:40:07;100593.36;;;4.21;63.10
17450;BME280;8842;51.244;7.102;2023-02-28T16:50:30;100591.73;;;4.43;64.39
17450;BME280;8842;51.244;7.102;2023-02-28T16:55:36;100606.36;;;4.26;64.46
17450;BME280;8842;51.244;7.102;2023-02-28T17:00:40;100612.21;;;4.07;66.10
17450;BME280;8842;51.244;7.102;2023-02-28T17:05:44;100613.67;;;4.03;66.21
17450;BME280;8842;51.244;7.102;2023-02-28T17:10:49;100612.11;;;3.97;66.21
17450;BME280;8842;51.244;7.102;2023-02-28T17:15:53;100614.64;;;3.86;66.53
17450;BME280;8842;51.244;7.102;2023-02-28T17:26:13;100631.14;;;3.91;67.67
17450;BME280;8842;51.244;7.102;2023-02-28T17:31:17;100639.00;;;3.78;68.17
17450;BME280;8842;51.244;7.102;2023-02-28T17:41:35;100649.78;;;3.69;69.23
17450;BME280;8842;51.244;7.102;2023-02-28T17:46:40;100654.95;;;3.57;70.22
17450;BME280;8842;51.244;7.102;2023-02-28T17:56:56;100655.88;;;3.69;69.93
17450;BME280;8842;51.244;7.102;2023-02-28T18:02:01;100652.08;;;3.36;71.07
17450;BME280;8842;51.244;7.102;2023-02-28T18:07:06;100664.72;;;3.38;71.77
17450;BME280;8842;51.244;7.102;2023-02-28T18:12:10;100658.73;;;3.47;70.93
17450;BME280;8842;51.244;7.102;2023-02-28T18:17:15;100654.70;;;3.36;71.47
17450;BME280;8842;51.244;7.102;2023-02-28T18:27:30;100652.86;;;3.25;72.44
17450;BME280;8842;51.244;7.102;2023-02-28T18:37:46;100660.95;;;3.17;73.28
17450;BME280;8842;51.244;7.102;2023-02-28T18:42:50;100661.70;;;3.21;72.86
17450;BME280;8842;51.244;7.102;2023-02-28T18:53:08;100657.37;;;3.04;74.86
17450;BME280;8842;51.244;7.102;2023-02-28T18:58:13;100661.80;;;3.02;75.22
17450;BME280;8842;51.244;7.102;2023-02-28T19:03:18;100667.37;;;2.90;75.66
17450;BME280;8842;51.244;7.102;2023-02-28T19:08:22;100672.54;;;2.93;76.00
17450;BME280;8842;51.244;7.102;2023-02-28T19:18:38;100663.67;;;2.97;75.78
17450;BME280;8842;51.244;7.102;2023-02-28T19:28:54;100665.91;;;2.80;77.72
17450;BME280;8842;51.244;7.102;2023-02-28T19:39:10;100675.36;;;2.69;78.40
17450;BME280;8842;51.244;7.102;2023-02-28T19:44:14;100687.58;;;2.53;79.50
17450;BME280;8842;51.244;7.102;2023-02-28T19:49:18;100690.05;;;2.59;80.26
17450;BME280;8842;51.244;7.102;2023-02-28T19:54:22;100689.15;;;2.42;81.08
17450;BME280;8842;51.244;7.102;2023-02-28T19:59:27;100693.23;;;2.36;81.88
17450;BME280;8842;51.244;7.102;2023-02-28T20:09:43;100691.98;;;2.16;83.61
17450;BME280;8842;51.244;7.102;2023-02-28T20:14:48;100688.45;;;2.18;84.07
17450;BME280;8842;51.244;7.102;2023-02-28T20:25:04;100695.51;;;2.15;84.54
17450;BME280;8842;51.244;7.102;2023-02-28T20:30:11;100689.84;;;1.94;84.91
17450;BME280;8842;51.244;7.102;2023-02-28T20:35:15;100686.39;;;1.94;85.41
17450;BME280;8842;51.244;7.102;2023-02-28T20:40:19;100690.18;;;2.00;85.07
17450;BME280;8842;51.244;7.102;2023-02-28T20:45:23;100687.92;;;2.02;85.20
17450;BME280;8842;51.244;7.102;2023-02-28T20:50:27;100686.92;;;1.89;86.27
17450;BME280;8842;51.244;7.102;2023-02-28T20:55:31;100677.86;;;1.84;87.08
17450;BME280;8842;51.244;7.102;2023-02-28T21:00:36;100677.32;;;1.89;86.78
17450;BME280;8842;51.244;7.102;2023-02-28T21:05:40;100672.82;;;1.75;87.36
17450;BME280;8842;51.244;7.102;2023-02-28T21:15:55;100682.97;;;1.51;89.48
17450;BME280;8842;51.244;7.102;2023-02-28T21:21:01;100682.78;;;1.39;90.54
17450;BME280;8842;51.244;7.102;2023-02-28T21:26:07;100686.02;;;1.30;90.12
17450;BME280;8842;51.244;7.102;2023-02-28T21:31:14;100687.67;;;1.34;89.83
17450;BME280;8842;51.244;7.102;2023-02-28T21:36:21;100686.39;;;1.32;92.17
17450;BME280;8842;51.244;7.102;2023-02-28T21:41:26;100686.24;;;1.40;91.75
17450;BME280;8842;51.244;7.102;2023-02-28T21:51:43;100695.84;;;1.41;92.37
17450;BME280;8842;51.244;7.102;2023-02-28T22:01:59;100691.69;;;1.29;94.03
17450;BME280;8842;51.244;7.102;2023-02-28T22:07:03;100687.05;;;1.23;95.00
17450;BME280;8842;51.244;7.102;2023-02-28T22:12:08;100684.34;;;1.27;94.92
17450;BME280;8842;51.244;7.102;2023-02-28T22:17:12;100689.72;;;1.20;95.19
17450;BME280;8842;51.244;7.102;2023-02-28T22:22:16;100692.89;;;1.13;95.47
17450;BME280;8842;51.244;7.102;2023-02-28T22:27:20;100688.81;;;1.21;95.00
17450;BME280;8842;51.244;7.102;2023-02-28T22:32:24;100694.66;;;1.11;95.57
17450;BME280;8842;51.244;7.102;2023-02-28T22:37:28;100696.29;;;1.18;95.33
17450;BME280;8842;51.244;7.102;2023-02-28T22:42:32;100693.17;;;1.20;95.33
17450;BME280;8842;51.244;7.102;2023-02-28T22:47:37;100716.59;;;1.04;96.01
17450;BME280;8842;51.244;7.102;2023-02-28T22:52:41;100700.33;;;1.12;94.60
17450;BME280;8842;51.244;7.102;2023-02-28T22:57:45;100702.16;;;1.07;94.76
17450;BME280;8842;51.244;7.102;2023-02-28T23:02:49;100698.37;;;0.76;98.25
17450;BME280;8842;51.244;7.102;2023-02-28T23:07:53;100703.39;;;0.88;96.49
17450;BME280;8842;51.244;7.102;2023-02-28T23:12:57;100695.84;;;0.72;97.94
17450;BME280;8842;51.244;7.102;2023-02-28T23:18:03;100687.64;;;0.68;98.04
17450;BME280;8842;51.244;7.102;2023-02-28T23:23:07;100688.95;;;0.68;97.17
17450;BME280;8842;51.244;7.102;2023-02-28T23:28:12;100680.73;;;0.65;97.86
17450;BME280;8842;51.244;7.102;2023-02-28T23:33:16;100686.41;;;0.63;98.14
17450;BME280;8842;51.244;7.102;2023-02-28T23:38:20;100691.48;;;0.47;100.00
17450;BME280;8842;51.244;7.102;2023-02-28T23:48:36;100705.16;;;0.36;100.00
17450;BME280;8842;51.244;7.102;2023-02-28T23:58:56;100709.55;;;0.36;100.00
